Weather at Sécurité Heliport

Public forecast

Using degrees Celsius for public forecast. Weather courtesy of forecast.io.

Closest aviation weather report (METAR) to Sécurité Heliport

Closest report is Aosta Airport, 23.2 nm (42.9 km) ESE. Retrieved 2020/09/22 13:20 UTC (38 minutes ago):

LIMW 221320Z AUTO 08005KT 040V100 9999 -RA FEW031 OVC040 19/15 Q1014

Closest aviation forecast (TAF) to Sécurité Heliport

Closest forecast is Annecy-Haute-Savoie-Mont Blanc Airport, 33.0 nm (61.1 km) W. Retrieved 2020/09/22 15:00 UTC (0 seconds ago):

TAF LFLP 221400Z 2215/2315 21005KT 9999 FEW038 SCT060 BKN120 TEMPO 2215/2220 4000 SHRA SCT035TCU PROB30 TEMPO 2215/2220 23015G25KT 3000 TSRA BKN030CB TEMPO 2220/2305 2500 SHRA BKN014 FEW025CB PROB30 2220/2304 TSRA TEMPO 2305/2308 4000 BR BKN008